Time;durP1;ratioP1;P1;durP2;ratioP2;P2;SDS_P1;SDS_P2;PMS_P1;PMS_P2;Temp;Humidity;BMP_temperature;BMP_pressure;BME280_temperature;BME280_humidity;BME280_pressure;Samples;Min_cycle;Max_cycle;Signal;HPM_P1;HPM_P2
2023/08/24 00:00:45;;;;;;;11.55;8.70;;;;;;;;;;2088606;28;20425;-90
2023/08/24 00:01:45;;;;;;;10.05;7.47;;;;;;;;;;2088793;28;20033;-90
2023/08/24 00:02:46;;;;;;;10.63;8.73;;;;;;;;;;2080986;28;20025;-90
2023/08/24 00:03:47;;;;;;;9.43;7.95;;;;;;;;;;2080546;28;20345;-89
2023/08/24 00:04:48;;;;;;;9.27;7.93;;;;;;;;;;2080175;28;20041;-89
2023/08/24 00:05:48;;;;;;;11.13;7.75;;;;;;;;;;2081278;28;20116;-89
2023/08/24 00:06:49;;;;;;;13.88;7.88;;;;;;;;;;2080958;28;20029;-89
2023/08/24 00:07:49;;;;;;;11.40;7.88;;;;;;;;;;2081434;28;20133;-89
2023/08/24 00:08:50;;;;;;;10.88;8.02;;;;;;;;;;2080599;28;20033;-90
2023/08/24 00:09:52;;;;;;;9.82;7.70;;;;;;;;;;2072498;28;20108;-90
2023/08/24 00:10:53;;;;;;;12.00;8.77;;;;;;;;;;2080931;28;20128;-89
2023/08/24 00:11:53;;;;;;;9.77;7.57;;;;;;;;;;2088847;28;20425;-90
2023/08/24 00:12:54;;;;;;;10.98;7.47;;;;;;;;;;2081075;28;20032;-89
2023/08/24 00:13:54;;;;;;;12.20;8.10;;;;;;;;;;2081098;28;20021;-89
2023/08/24 00:14:54;;;;;;;10.27;7.65;;;;;;;;;;2081895;28;20121;-89
2023/08/24 00:15:55;;;;;;;11.90;7.32;;;;;;;;;;2081095;28;20508;-88
2023/08/24 00:16:55;;;;;;;14.10;7.55;;;;;;;;;;2080314;28;20013;-88
2023/08/24 00:17:56;;;;;;;9.10;7.82;;;;;;;;;;2072822;28;20562;-89
2023/08/24 00:18:56;;;;;;;9.63;7.00;;;;;;;;;;2057318;28;20046;-89
2023/08/24 00:19:57;;;;;;;10.90;8.05;;;;;;;;;;2066338;28;20009;-89
2023/08/24 00:20:58;;;;;;;9.63;7.90;;;;;;;;;;2065755;28;20109;-88
2023/08/24 00:21:58;;;;;;;10.50;7.60;;;;;;;;;;2077176;28;20038;-89
2023/08/24 00:22:59;;;;;;;10.77;7.70;;;;;;;;;;2068650;28;20014;-88
2023/08/24 00:23:59;;;;;;;9.57;8.27;;;;;;;;;;2065927;28;20026;-89
2023/08/24 00:25:00;;;;;;;8.75;7.65;;;;;;;;;;2065389;28;20026;-89
2023/08/24 00:26:00;;;;;;;10.30;8.02;;;;;;;;;;2063944;28;20486;-89
2023/08/24 00:27:00;;;;;;;13.25;7.55;;;;;;;;;;2063805;28;20134;-88
2023/08/24 00:28:01;;;;;;;9.70;7.55;;;;;;;;;;2064555;28;20027;-89
2023/08/24 00:29:01;;;;;;;9.60;7.47;;;;;;;;;;2064616;28;20466;-89
2023/08/24 00:30:04;;;;;;;9.30;7.85;;;;;;;;;;2064640;28;20042;-88
2023/08/24 00:31:04;;;;;;;9.88;7.10;;;;;;;;;;2064680;28;20022;-89
2023/08/24 00:32:05;;;;;;;9.80;8.02;;;;;;;;;;2064541;28;20389;-88
2023/08/24 00:33:07;;;;;;;10.00;7.75;;;;;;;;;;1768501;28;10343391;-90
2023/08/24 00:34:07;;;;;;;9.95;7.65;;;;;;;;;;2055989;28;20402;-89
2023/08/24 00:35:10;;;;;;;9.55;7.18;;;;;;;;;;2055668;28;20085;-88
2023/08/24 00:36:10;;;;;;;9.00;7.68;;;;;;;;;;2063960;28;20030;-89
2023/08/24 00:37:10;;;;;;;9.15;8.00;;;;;;;;;;2064481;28;20030;-88
2023/08/24 00:38:11;;;;;;;9.18;7.90;;;;;;;;;;2064643;28;20349;-88
2023/08/24 00:39:11;;;;;;;9.05;7.20;;;;;;;;;;2064747;28;20038;-88
2023/08/24 00:40:12;;;;;;;8.23;7.30;;;;;;;;;;2063488;28;20030;-88
2023/08/24 00:41:13;;;;;;;12.15;7.85;;;;;;;;;;2055845;28;20087;-88
2023/08/24 00:42:15;;;;;;;10.07;8.00;;;;;;;;;;2063765;28;20485;-88
2023/08/24 00:43:15;;;;;;;9.30;7.78;;;;;;;;;;2065869;28;20026;-88
2023/08/24 00:44:16;;;;;;;11.82;7.57;;;;;;;;;;2067159;28;20121;-88
2023/08/24 00:45:17;;;;;;;9.07;7.95;;;;;;;;;;2063952;28;20524;-88
2023/08/24 00:46:18;;;;;;;9.23;7.78;;;;;;;;;;2063835;28;20065;-90
2023/08/24 00:47:19;;;;;;;10.55;8.07;;;;;;;;;;2063804;28;20090;-88
2023/08/24 00:48:21;;;;;;;10.50;7.97;;;;;;;;;;2055822;28;20038;-88
2023/08/24 00:49:22;;;;;;;9.52;7.72;;;;;;;;;;2064032;28;20037;-88
2023/08/24 00:50:22;;;;;;;10.13;7.70;;;;;;;;;;2063779;28;20094;-89
2023/08/24 00:51:24;;;;;;;9.77;7.78;;;;;;;;;;2064041;28;20513;-90
2023/08/24 00:52:28;;;;;;;11.23;8.02;;;;;;;;;;2063718;28;20069;-88
2023/08/24 00:53:30;;;;;;;8.48;7.45;;;;;;;;;;2056170;28;20088;-88
2023/08/24 00:54:30;;;;;;;12.25;8.10;;;;;;;;;;2055685;28;20089;-89
2023/08/24 00:55:30;;;;;;;9.57;7.68;;;;;;;;;;2064036;28;20033;-88
2023/08/24 00:56:32;;;;;;;11.50;7.78;;;;;;;;;;2063579;28;20084;-88
2023/08/24 00:57:35;;;;;;;13.10;8.23;;;;;;;;;;2063790;28;20026;-88
2023/08/24 00:58:35;;;;;;;10.50;8.32;;;;;;;;;;2064355;28;20042;-88
2023/08/24 00:59:36;;;;;;;11.80;8.00;;;;;;;;;;2063587;28;20117;-89
2023/08/24 01:00:37;;;;;;;9.90;8.50;;;;;;;;;;2063637;28;20035;-89
2023/08/24 01:01:39;;;;;;;12.68;8.77;;;;;;;;;;2064395;28;20506;-89
2023/08/24 01:02:40;;;;;;;11.13;8.43;;;;;;;;;;2064479;28;20057;-89
2023/08/24 01:03:40;;;;;;;12.73;8.55;;;;;;;;;;2056538;28;20090;-89
2023/08/24 01:04:42;;;;;;;9.98;8.20;;;;;;;;;;2063664;28;20026;-89
2023/08/24 01:05:44;;;;;;;14.43;8.65;;;;;;;;;;2063897;28;20026;-89
2023/08/24 01:06:45;;;;;;;10.07;8.25;;;;;;;;;;2064296;28;20054;-89
2023/08/24 01:07:45;;;;;;;8.80;7.32;;;;;;;;;;2055489;28;20082;-89
2023/08/24 01:08:46;;;;;;;9.23;8.10;;;;;;;;;;2047460;29;20031;-89
2023/08/24 01:09:47;;;;;;;11.80;8.00;;;;;;;;;;2047592;29;20030;-89
2023/08/24 01:10:50;;;;;;;9.43;8.07;;;;;;;;;;2063646;28;20136;-89
2023/08/24 01:12:03;;;;;;;12.00;7.63;;;;;;;;;;2064284;28;20018;-89
2023/08/24 01:13:06;;;;;;;9.07;8.18;;;;;;;;;;2063524;28;20034;-88
2023/08/24 01:14:15;;;;;;;12.15;8.55;;;;;;;;;;2063403;28;20026;-90
2023/08/24 01:15:24;;;;;;;13.65;7.63;;;;;;;;;;2063702;28;20034;-90
2023/08/24 01:16:28;;;;;;;12.52;8.32;;;;;;;;;;2064104;28;20485;-90
2023/08/24 01:17:30;;;;;;;13.23;8.02;;;;;;;;;;2062757;28;20498;-89
2023/08/24 01:18:33;;;;;;;12.20;8.50;;;;;;;;;;1696971;28;10463195;-90
2023/08/24 01:19:42;;;;;;;12.07;7.88;;;;;;;;;;2055781;28;20113;-90
2023/08/24 01:20:43;;;;;;;9.82;7.97;;;;;;;;;;2063903;28;20113;-90
2023/08/24 01:21:44;;;;;;;9.85;8.27;;;;;;;;;;2064134;28;20123;-90
2023/08/24 01:23:03;;;;;;;11.93;8.18;;;;;;;;;;2064314;28;20034;-90
2023/08/24 01:24:14;;;;;;;10.82;8.18;;;;;;;;;;2063295;28;20045;-90
2023/08/24 01:25:33;;;;;;;10.60;7.55;;;;;;;;;;2056709;28;20043;-90
2023/08/24 01:26:34;;;;;;;10.75;7.93;;;;;;;;;;2063549;28;20033;-90
2023/08/24 01:27:36;;;;;;;11.13;8.25;;;;;;;;;;2063118;28;20038;-89
2023/08/24 01:28:38;;;;;;;17.27;9.32;;;;;;;;;;2063737;28;20110;-90
2023/08/24 01:29:40;;;;;;;11.23;8.32;;;;;;;;;;2064312;28;20088;-90
2023/08/24 01:30:40;;;;;;;9.43;7.97;;;;;;;;;;2064541;28;20026;-90
2023/08/24 01:31:41;;;;;;;10.02;7.72;;;;;;;;;;2057662;28;20470;-89
2023/08/24 01:32:42;;;;;;;11.05;7.38;;;;;;;;;;2048412;29;20039;-90
2023/08/24 01:33:44;;;;;;;10.63;8.15;;;;;;;;;;2055644;28;20052;-90
2023/08/24 01:34:44;;;;;;;11.18;8.13;;;;;;;;;;2055132;28;20031;-90
2023/08/24 01:35:45;;;;;;;10.60;8.40;;;;;;;;;;2047435;29;20035;-90
2023/08/24 01:36:46;;;;;;;12.32;8.27;;;;;;;;;;2047195;29;20038;-90
2023/08/24 01:37:46;;;;;;;10.90;8.02;;;;;;;;;;2055343;28;20034;-90
2023/08/24 01:39:11;;;;;;;11.00;7.50;;;;;;;;;;2055805;28;20049;-90
2023/08/24 01:40:19;;;;;;;15.02;8.43;;;;;;;;;;2050714;28;20027;-90
2023/08/24 01:41:24;;;;;;;9.93;7.82;;;;;;;;;;2056281;28;20598;-89
2023/08/24 01:42:28;;;;;;;10.63;7.82;;;;;;;;;;2064018;28;20030;-89
2023/08/24 01:43:33;;;;;;;10.15;8.35;;;;;;;;;;2063906;28;20030;-90
2023/08/24 01:44:37;;;;;;;12.18;7.93;;;;;;;;;;2054956;28;20136;-90
2023/08/24 01:45:41;;;;;;;10.93;8.27;;;;;;;;;;2055123;28;20445;-90
2023/08/24 01:46:43;;;;;;;12.45;7.97;;;;;;;;;;2055374;28;20474;-90
2023/08/24 01:47:44;;;;;;;10.57;7.18;;;;;;;;;;2055490;28;20108;-90
2023/08/24 01:48:45;;;;;;;10.20;8.20;;;;;;;;;;2055300;28;20525;-89
2023/08/24 01:49:45;;;;;;;14.10;8.38;;;;;;;;;;2055464;28;20030;-90
2023/08/24 01:50:46;;;;;;;9.25;7.93;;;;;;;;;;2055410;28;20022;-90
2023/08/24 01:51:47;;;;;;;13.82;7.88;;;;;;;;;;2055248;28;20505;-90
2023/08/24 01:52:49;;;;;;;11.88;8.05;;;;;;;;;;2054933;28;20050;-90
2023/08/24 01:53:50;;;;;;;9.95;7.50;;;;;;;;;;2055497;28;20038;-90
2023/08/24 01:54:50;;;;;;;9.63;8.05;;;;;;;;;;2055069;28;20499;-89
2023/08/24 01:55:52;;;;;;;8.98;7.43;;;;;;;;;;2055185;28;20046;-90
2023/08/24 01:56:53;;;;;;;12.20;8.63;;;;;;;;;;2064013;28;20031;-90
2023/08/24 01:57:55;;;;;;;11.50;7.78;;;;;;;;;;2063671;28;20394;-90
2023/08/24 01:58:57;;;;;;;10.23;7.63;;;;;;;;;;2054938;28;20050;-90
2023/08/24 01:59:57;;;;;;;10.75;7.88;;;;;;;;;;2047095;28;20023;-90
2023/08/24 02:00:57;;;;;;;11.02;7.93;;;;;;;;;;2055069;28;20105;-90
2023/08/24 02:01:58;;;;;;;11.55;7.93;;;;;;;;;;2055139;28;20086;-90
2023/08/24 02:02:58;;;;;;;10.48;8.05;;;;;;;;;;2054994;28;20050;-90
2023/08/24 02:03:59;;;;;;;11.13;8.05;;;;;;;;;;2054822;28;20470;-90
2023/08/24 02:05:00;;;;;;;9.10;8.15;;;;;;;;;;2047380;28;20208;-90
2023/08/24 02:06:00;;;;;;;11.55;8.63;;;;;;;;;;2055208;28;20495;-90
2023/08/24 02:07:00;;;;;;;13.93;8.10;;;;;;;;;;2055233;28;20037;-89
2023/08/24 02:08:01;;;;;;;10.75;8.85;;;;;;;;;;2054799;28;20030;-90
2023/08/24 02:09:03;;;;;;;9.45;7.95;;;;;;;;;;2046757;29;20039;-90
2023/08/24 02:10:03;;;;;;;10.15;8.50;;;;;;;;;;2055314;28;20290;-90
2023/08/24 02:11:04;;;;;;;11.05;8.40;;;;;;;;;;2063581;28;20038;-89
2023/08/24 02:12:04;;;;;;;10.35;8.02;;;;;;;;;;2055229;28;20098;-89
2023/08/24 02:13:04;;;;;;;11.90;8.18;;;;;;;;;;2047133;29;20027;-90
2023/08/24 02:14:05;;;;;;;10.68;8.07;;;;;;;;;;2047105;29;20471;-89
2023/08/24 02:15:06;;;;;;;9.63;7.85;;;;;;;;;;2054733;28;20037;-90
2023/08/24 02:16:12;;;;;;;11.48;8.05;;;;;;;;;;2054909;28;20030;-90
2023/08/24 02:17:13;;;;;;;10.15;7.88;;;;;;;;;;2047567;28;20034;-89
2023/08/24 02:18:14;;;;;;;11.32;8.05;;;;;;;;;;2047712;28;20042;-90
2023/08/24 02:19:14;;;;;;;12.27;8.80;;;;;;;;;;2049049;29;20047;-88
2023/08/24 02:20:15;;;;;;;10.88;7.90;;;;;;;;;;2049343;29;20063;-89
2023/08/24 02:21:16;;;;;;;11.52;8.27;;;;;;;;;;2047126;28;20089;-89
2023/08/24 02:22:16;;;;;;;10.77;7.85;;;;;;;;;;2054860;28;20035;-89
2023/08/24 02:23:16;;;;;;;10.77;8.40;;;;;;;;;;2055098;28;20409;-90
2023/08/24 02:24:17;;;;;;;8.60;7.75;;;;;;;;;;2055234;28;20039;-91
2023/08/24 02:25:17;;;;;;;10.88;8.50;;;;;;;;;;2063682;28;20030;-90
2023/08/24 02:26:17;;;;;;;9.00;7.85;;;;;;;;;;2054795;28;20513;-90
2023/08/24 02:27:18;;;;;;;8.65;7.38;;;;;;;;;;2054694;28;20029;-89
2023/08/24 02:28:18;;;;;;;12.25;7.32;;;;;;;;;;2054959;28;20030;-90
2023/08/24 02:30:27;;;;;;;9.30;7.57;;;;;;;;;;2063502;28;20051;-93
2023/08/24 02:31:27;;;;;;;10.25;7.80;;;;;;;;;;2064483;28;20034;-94
2023/08/24 02:32:27;;;;;;;8.90;7.60;;;;;;;;;;2064317;28;20027;-94
2023/08/24 02:33:28;;;;;;;14.30;8.02;;;;;;;;;;2064906;28;20509;-94
2023/08/24 02:34:28;;;;;;;11.38;8.00;;;;;;;;;;2056566;28;20035;-93
2023/08/24 02:35:29;;;;;;;8.48;7.57;;;;;;;;;;2072750;28;20040;-93
2023/08/24 02:36:32;;;;;;;9.73;7.78;;;;;;;;;;2071280;28;20026;-88
2023/08/24 02:37:33;;;;;;;11.68;7.80;;;;;;;;;;2055320;28;20587;-91
2023/08/24 02:38:33;;;;;;;10.10;7.63;;;;;;;;;;2063151;28;20057;-89
2023/08/24 02:39:34;;;;;;;11.45;8.32;;;;;;;;;;2063153;28;20477;-90
2023/08/24 02:40:35;;;;;;;10.23;7.78;;;;;;;;;;2063104;28;20092;-89
2023/08/24 02:41:35;;;;;;;12.60;8.07;;;;;;;;;;2062804;28;20156;-90
2023/08/24 02:42:36;;;;;;;12.38;8.18;;;;;;;;;;2063090;28;20117;-90
2023/08/24 02:43:37;;;;;;;10.10;8.45;;;;;;;;;;2063100;28;20030;-90
2023/08/24 02:44:37;;;;;;;9.88;7.55;;;;;;;;;;2070484;28;20034;-90
2023/08/24 02:45:37;;;;;;;8.43;7.53;;;;;;;;;;2065608;28;20065;-90
2023/08/24 02:46:38;;;;;;;11.07;8.02;;;;;;;;;;2065894;28;20019;-90
2023/08/24 02:47:38;;;;;;;9.65;8.15;;;;;;;;;;2070066;28;20053;-89
2023/08/24 02:48:39;;;;;;;9.95;7.93;;;;;;;;;;2063170;28;20497;-90
2023/08/24 02:49:40;;;;;;;11.23;8.57;;;;;;;;;;2063232;28;20591;-90
2023/08/24 02:50:40;;;;;;;11.32;8.38;;;;;;;;;;2063589;28;20096;-91
2023/08/24 02:51:41;;;;;;;10.73;8.50;;;;;;;;;;2054159;28;20078;-90
2023/08/24 02:52:41;;;;;;;9.77;7.95;;;;;;;;;;2054802;28;20391;-90
2023/08/24 02:53:41;;;;;;;10.20;8.50;;;;;;;;;;2054818;28;20027;-90
2023/08/24 02:54:42;;;;;;;10.38;8.07;;;;;;;;;;2063718;28;20116;-90
2023/08/24 02:55:42;;;;;;;11.85;8.15;;;;;;;;;;2071715;28;20419;-90
2023/08/24 02:56:42;;;;;;;11.38;8.40;;;;;;;;;;2062898;28;20038;-90
2023/08/24 02:57:43;;;;;;;11.70;9.02;;;;;;;;;;2054726;28;20501;-90
2023/08/24 02:58:43;;;;;;;10.30;7.68;;;;;;;;;;2070891;28;20046;-90
2023/08/24 02:59:44;;;;;;;8.52;7.63;;;;;;;;;;2079205;28;20069;-89
2023/08/24 03:00:44;;;;;;;10.95;8.65;;;;;;;;;;2071688;28;20051;-89
2023/08/24 03:01:45;;;;;;;10.82;8.57;;;;;;;;;;2063024;28;20030;-89
2023/08/24 03:02:45;;;;;;;12.88;7.63;;;;;;;;;;2063418;28;20485;-89
2023/08/24 03:03:46;;;;;;;12.52;8.98;;;;;;;;;;2054647;28;20031;-89
2023/08/24 03:04:46;;;;;;;9.15;7.90;;;;;;;;;;2062955;28;20152;-89
2023/08/24 03:05:56;;;;;;;8.40;7.15;;;;;;;;;;2062910;28;20049;-89
2023/08/24 03:06:57;;;;;;;8.82;7.60;;;;;;;;;;2065695;28;20098;-89
2023/08/24 03:07:57;;;;;;;11.27;7.85;;;;;;;;;;2064063;28;20077;-90
2023/08/24 03:09:01;;;;;;;8.40;7.00;;;;;;;;;;2062868;28;20294;-88
2023/08/24 03:10:01;;;;;;;8.77;7.15;;;;;;;;;;2062793;28;20038;-90
2023/08/24 03:11:03;;;;;;;10.50;7.25;;;;;;;;;;2063223;28;20022;-90
2023/08/24 03:12:03;;;;;;;10.60;8.15;;;;;;;;;;2062787;28;20030;-90
2023/08/24 03:13:04;;;;;;;8.90;7.47;;;;;;;;;;2062672;28;20113;-91
2023/08/24 03:14:04;;;;;;;11.18;8.73;;;;;;;;;;2063049;28;20394;-90
2023/08/24 03:15:05;;;;;;;9.93;8.07;;;;;;;;;;2062681;28;20034;-90
2023/08/24 03:16:07;;;;;;;11.10;7.95;;;;;;;;;;2064961;28;20145;-90
2023/08/24 03:17:07;;;;;;;11.77;8.43;;;;;;;;;;2071744;28;20029;-90
2023/08/24 03:18:11;;;;;;;10.38;7.72;;;;;;;;;;2071704;28;20030;-90
2023/08/24 03:19:14;;;;;;;10.50;8.75;;;;;;;;;;2062808;28;20034;-90
2023/08/24 03:20:14;;;;;;;10.48;8.90;;;;;;;;;;2055079;28;20138;-90
2023/08/24 03:21:14;;;;;;;10.27;7.90;;;;;;;;;;2063154;28;20082;-89
2023/08/24 03:22:15;;;;;;;10.88;7.93;;;;;;;;;;2062732;28;20124;-90
2023/08/24 03:23:16;;;;;;;10.38;8.05;;;;;;;;;;2062991;28;20109;-89
2023/08/24 03:24:16;;;;;;;9.90;8.18;;;;;;;;;;2071465;28;20038;-90
2023/08/24 03:25:16;;;;;;;10.70;8.45;;;;;;;;;;2062900;28;20033;-90
2023/08/24 03:26:20;;;;;;;9.80;8.70;;;;;;;;;;2054851;28;20565;-90
2023/08/24 03:27:20;;;;;;;10.52;7.97;;;;;;;;;;2063484;28;20036;-90
2023/08/24 03:28:20;;;;;;;10.77;8.15;;;;;;;;;;2062748;28;20050;-90
2023/08/24 03:29:21;;;;;;;9.73;8.45;;;;;;;;;;2054931;28;20039;-90
2023/08/24 03:30:22;;;;;;;11.13;8.05;;;;;;;;;;2054866;28;20486;-90
2023/08/24 03:31:23;;;;;;;10.45;7.88;;;;;;;;;;2063096;28;20046;-90
2023/08/24 03:32:23;;;;;;;10.45;8.05;;;;;;;;;;2071803;28;20453;-90
2023/08/24 03:33:24;;;;;;;9.40;8.02;;;;;;;;;;2062637;28;20031;-89
2023/08/24 03:34:24;;;;;;;10.43;8.48;;;;;;;;;;2062885;28;20065;-89
2023/08/24 03:35:25;;;;;;;10.88;7.93;;;;;;;;;;2071443;28;20034;-90
2023/08/24 03:36:25;;;;;;;8.60;7.53;;;;;;;;;;2071718;28;20459;-90
2023/08/24 03:37:26;;;;;;;13.43;8.18;;;;;;;;;;2062993;28;20484;-90
2023/08/24 03:38:27;;;;;;;10.73;7.57;;;;;;;;;;2062998;28;20046;-90
2023/08/24 03:39:28;;;;;;;12.23;8.40;;;;;;;;;;2063522;28;20047;-90
2023/08/24 03:40:28;;;;;;;11.95;8.02;;;;;;;;;;2055852;28;20039;-90
2023/08/24 03:41:29;;;;;;;10.93;7.60;;;;;;;;;;2064523;28;20038;-90
2023/08/24 03:42:29;;;;;;;12.25;7.95;;;;;;;;;;2073240;28;20067;-90
2023/08/24 03:43:33;;;;;;;9.65;7.85;;;;;;;;;;2064145;28;20077;-88
2023/08/24 03:44:34;;;;;;;14.63;8.10;;;;;;;;;;2065143;28;20038;-89
2023/08/24 03:45:34;;;;;;;10.25;8.40;;;;;;;;;;2073236;28;20030;-89
2023/08/24 03:46:34;;;;;;;10.23;7.90;;;;;;;;;;2064830;28;20523;-89
2023/08/24 03:47:35;;;;;;;10.70;8.60;;;;;;;;;;2056575;28;20077;-89
2023/08/24 03:48:35;;;;;;;11.13;7.72;;;;;;;;;;2057203;28;20383;-89
2023/08/24 03:49:36;;;;;;;10.52;8.18;;;;;;;;;;2064794;28;20042;-89
2023/08/24 03:50:36;;;;;;;10.93;7.68;;;;;;;;;;2073100;28;20485;-90
2023/08/24 03:51:37;;;;;;;11.15;8.10;;;;;;;;;;2064974;28;20034;-89
2023/08/24 03:52:39;;;;;;;10.63;7.93;;;;;;;;;;2057259;28;20043;-90
2023/08/24 03:53:39;;;;;;;9.73;7.65;;;;;;;;;;2056812;28;20134;-90
2023/08/24 03:54:39;;;;;;;10.35;7.10;;;;;;;;;;2058921;28;20066;-87
2023/08/24 03:55:40;;;;;;;9.77;7.82;;;;;;;;;;2058900;28;20042;-89
2023/08/24 03:56:40;;;;;;;13.27;8.50;;;;;;;;;;2064310;28;20473;-91
2023/08/24 03:57:40;;;;;;;11.60;8.20;;;;;;;;;;2064528;28;20077;-90
2023/08/24 03:58:41;;;;;;;8.73;7.20;;;;;;;;;;2064276;28;20497;-89
2023/08/24 03:59:41;;;;;;;9.98;7.70;;;;;;;;;;2064116;28;20354;-89
2023/08/24 04:00:43;;;;;;;10.50;8.40;;;;;;;;;;2056099;28;20074;-88
2023/08/24 04:01:43;;;;;;;9.25;8.00;;;;;;;;;;2064192;28;20045;-89
2023/08/24 04:02:44;;;;;;;10.20;8.10;;;;;;;;;;2072948;28;20476;-94
2023/08/24 04:03:45;;;;;;;9.27;7.82;;;;;;;;;;2065810;28;20034;-93
2023/08/24 04:04:45;;;;;;;9.65;8.00;;;;;;;;;;2065686;28;20450;-93
2023/08/24 04:05:46;;;;;;;10.32;8.18;;;;;;;;;;2069245;28;20062;-94
2023/08/24 04:06:46;;;;;;;14.50;8.05;;;;;;;;;;2065854;28;20034;-94
2023/08/24 04:07:47;;;;;;;10.13;8.07;;;;;;;;;;2058209;28;20042;-94
2023/08/24 04:08:47;;;;;;;15.68;8.10;;;;;;;;;;2059026;28;20035;-93
2023/08/24 04:09:48;;;;;;;11.03;7.80;;;;;;;;;;1721259;28;10002254;-94
2023/08/24 04:10:48;;;;;;;11.60;8.30;;;;;;;;;;2058899;28;20038;-94
2023/08/24 04:11:48;;;;;;;9.52;8.32;;;;;;;;;;2067239;28;20130;-93
2023/08/24 04:12:49;;;;;;;11.82;9.05;;;;;;;;;;2057857;28;20042;-94
2023/08/24 04:13:49;;;;;;;9.65;7.63;;;;;;;;;;1708335;28;10372767;-93
2023/08/24 04:14:52;;;;;;;9.07;8.10;;;;;;;;;;2065989;28;20069;-93
2023/08/24 04:15:52;;;;;;;10.27;7.93;;;;;;;;;;2058604;28;20477;-94
2023/08/24 04:16:53;;;;;;;9.70;7.38;;;;;;;;;;2058050;28;20037;-94
2023/08/24 04:17:53;;;;;;;8.88;7.18;;;;;;;;;;2057432;28;20125;-94
2023/08/24 04:18:53;;;;;;;11.00;8.32;;;;;;;;;;2065513;28;20045;-95
2023/08/24 04:19:54;;;;;;;11.65;8.50;;;;;;;;;;2074213;28;20030;-94
2023/08/24 04:20:55;;;;;;;9.40;8.10;;;;;;;;;;2065378;28;20105;-94
2023/08/24 04:21:55;;;;;;;8.82;7.88;;;;;;;;;;2065393;28;20022;-94
2023/08/24 04:22:56;;;;;;;10.52;7.70;;;;;;;;;;2057165;28;20050;-94
2023/08/24 04:23:56;;;;;;;10.57;8.20;;;;;;;;;;2065728;28;20027;-94
2023/08/24 04:24:57;;;;;;;10.95;7.90;;;;;;;;;;2057560;28;20030;-95
2023/08/24 04:25:57;;;;;;;9.15;7.78;;;;;;;;;;2057464;28;20033;-94
2023/08/24 04:26:58;;;;;;;11.88;9.18;;;;;;;;;;2065392;28;20057;-94
2023/08/24 04:27:58;;;;;;;12.80;8.98;;;;;;;;;;2065473;28;20030;-94
2023/08/24 04:28:58;;;;;;;12.63;8.45;;;;;;;;;;2065567;28;20057;-94
2023/08/24 04:29:59;;;;;;;12.80;8.45;;;;;;;;;;2073913;28;20088;-93
2023/08/24 04:31:00;;;;;;;10.23;8.00;;;;;;;;;;2065174;28;20468;-95
2023/08/24 04:32:00;;;;;;;9.98;7.72;;;;;;;;;;2057283;28;20058;-95
2023/08/24 04:33:00;;;;;;;11.25;7.65;;;;;;;;;;2057268;28;20124;-95
2023/08/24 04:34:01;;;;;;;11.05;7.60;;;;;;;;;;2065520;28;20121;-95
2023/08/24 04:35:01;;;;;;;10.70;8.30;;;;;;;;;;2065103;28;20060;-95
2023/08/24 04:36:05;;;;;;;9.57;7.65;;;;;;;;;;2065335;28;20026;-95
2023/08/24 04:37:06;;;;;;;11.68;8.25;;;;;;;;;;2065422;28;20398;-93
2023/08/24 04:38:09;;;;;;;9.90;7.68;;;;;;;;;;2057212;28;20140;-94
2023/08/24 04:39:10;;;;;;;10.52;7.68;;;;;;;;;;2057399;28;20022;-95
2023/08/24 04:40:11;;;;;;;11.40;8.13;;;;;;;;;;2057333;28;20118;-95
2023/08/24 04:41:12;;;;;;;10.40;8.18;;;;;;;;;;2059003;28;20042;-94
2023/08/24 04:42:12;;;;;;;12.63;7.70;;;;;;;;;;2074724;28;20015;-95
2023/08/24 04:43:13;;;;;;;11.18;7.88;;;;;;;;;;2064910;28;20039;-95
2023/08/24 04:44:13;;;;;;;13.77;8.02;;;;;;;;;;2067456;28;20046;-94
2023/08/24 04:45:14;;;;;;;9.55;7.95;;;;;;;;;;2074875;28;20041;-93
2023/08/24 04:46:14;;;;;;;9.20;7.95;;;;;;;;;;2065426;28;20068;-95
2023/08/24 04:47:15;;;;;;;11.15;8.35;;;;;;;;;;2057076;28;20034;-93
2023/08/24 04:48:15;;;;;;;12.20;8.45;;;;;;;;;;2057219;28;20041;-93
2023/08/24 04:49:16;;;;;;;11.93;8.27;;;;;;;;;;2057245;28;20465;-94
2023/08/24 04:50:16;;;;;;;9.70;7.78;;;;;;;;;;2057207;28;20042;-94
2023/08/24 04:51:16;;;;;;;10.10;7.22;;;;;;;;;;2057152;28;20054;-95
2023/08/24 04:52:17;;;;;;;9.30;8.05;;;;;;;;;;2057682;28;20080;-94
2023/08/24 04:53:18;;;;;;;10.23;8.13;;;;;;;;;;2057134;28;20125;-94
2023/08/24 04:54:18;;;;;;;12.18;7.95;;;;;;;;;;2057135;28;20039;-95
2023/08/24 04:55:19;;;;;;;17.85;7.32;;;;;;;;;;2065195;28;20030;-95
2023/08/24 04:56:19;;;;;;;8.45;6.93;;;;;;;;;;2057032;28;20031;-95
2023/08/24 04:57:29;;;;;;;10.66;7.57;;;;;;;;;;2007163;28;10461610;-94
2023/08/24 04:58:29;;;;;;;11.55;7.53;;;;;;;;;;2058899;28;20239;-93
2023/08/24 04:59:29;;;;;;;13.52;8.88;;;;;;;;;;2057417;28;20082;-94
2023/08/24 05:00:32;;;;;;;10.77;8.23;;;;;;;;;;2057435;28;20113;-93
2023/08/24 05:01:34;;;;;;;10.98;8.48;;;;;;;;;;2066185;28;20034;-94
2023/08/24 05:02:35;;;;;;;11.10;7.75;;;;;;;;;;2075065;28;20057;-96
2023/08/24 05:03:35;;;;;;;10.20;7.55;;;;;;;;;;2065486;28;20038;-93
2023/08/24 05:04:35;;;;;;;11.70;7.75;;;;;;;;;;2066984;28;20027;-94
2023/08/24 05:05:37;;;;;;;9.23;7.60;;;;;;;;;;2065660;28;20171;-94
2023/08/24 05:06:37;;;;;;;10.50;6.82;;;;;;;;;;2058575;28;20494;-95
2023/08/24 05:07:40;;;;;;;7.07;6.25;;;;;;;;;;2059037;28;20165;-95
2023/08/24 05:08:41;;;;;;;8.48;6.55;;;;;;;;;;2063860;28;20038;-95
2023/08/24 05:09:41;;;;;;;8.10;6.18;;;;;;;;;;2066870;28;20039;-95
2023/08/24 05:10:41;;;;;;;9.88;6.32;;;;;;;;;;2059455;28;20070;-95
2023/08/24 05:11:43;;;;;;;11.18;7.35;;;;;;;;;;2052540;29;20070;-94
2023/08/24 05:12:44;;;;;;;10.20;7.15;;;;;;;;;;2049470;28;20043;-96
2023/08/24 05:13:45;;;;;;;17.73;9.88;;;;;;;;;;2057550;28;20045;-95
2023/08/24 05:14:45;;;;;;;12.90;7.85;;;;;;;;;;2056991;28;20031;-95
2023/08/24 05:15:46;;;;;;;11.52;7.75;;;;;;;;;;2049170;28;20169;-95
2023/08/24 05:16:46;;;;;;;10.15;7.28;;;;;;;;;;2056948;28;20478;-95
2023/08/24 05:17:47;;;;;;;12.02;7.50;;;;;;;;;;2049343;29;20035;-95
2023/08/24 05:18:47;;;;;;;10.95;7.38;;;;;;;;;;2048862;29;20035;-95
2023/08/24 05:19:52;;;;;;;11.63;6.85;;;;;;;;;;2051422;28;20518;-95
2023/08/24 05:20:52;;;;;;;7.30;6.47;;;;;;;;;;2065409;28;20136;-96
2023/08/24 05:21:52;;;;;;;10.55;6.85;;;;;;;;;;2050971;28;20077;-95
2023/08/24 05:22:54;;;;;;;8.43;6.30;;;;;;;;;;2056977;28;20037;-96
2023/08/24 05:23:55;;;;;;;11.27;6.93;;;;;;;;;;2041096;28;20480;-95
2023/08/24 05:24:55;;;;;;;9.82;7.20;;;;;;;;;;2056677;28;20030;-95
2023/08/24 05:25:57;;;;;;;11.48;7.68;;;;;;;;;;2056726;28;20437;-95
2023/08/24 05:26:57;;;;;;;10.35;7.28;;;;;;;;;;2065363;28;20084;-95
2023/08/24 05:27:58;;;;;;;11.25;7.45;;;;;;;;;;2056838;28;20458;-95
2023/08/24 05:28:58;;;;;;;9.27;6.63;;;;;;;;;;2052157;28;20019;-94
2023/08/24 05:29:59;;;;;;;10.57;6.78;;;;;;;;;;2066674;28;20012;-95
2023/08/24 05:30:59;;;;;;;8.15;6.70;;;;;;;;;;2062399;28;20034;-93
2023/08/24 05:31:59;;;;;;;8.05;6.25;;;;;;;;;;2049297;28;20031;-92
2023/08/24 05:33:00;;;;;;;7.75;6.20;;;;;;;;;;2041979;29;20035;-95
2023/08/24 05:34:00;;;;;;;9.55;6.35;;;;;;;;;;2057084;28;20542;-96
2023/08/24 05:35:01;;;;;;;7.60;6.47;;;;;;;;;;2056803;28;20118;-95
2023/08/24 05:36:01;;;;;;;7.25;6.43;;;;;;;;;;2056817;28;20524;-96
2023/08/24 05:37:02;;;;;;;8.40;6.07;;;;;;;;;;2057190;28;20023;-96
2023/08/24 05:38:02;;;;;;;7.63;6.38;;;;;;;;;;2057623;28;20558;-96
2023/08/24 05:39:03;;;;;;;10.32;7.22;;;;;;;;;;2048865;29;20109;-95
2023/08/24 05:40:05;;;;;;;8.48;6.75;;;;;;;;;;2056840;28;20034;-95
2023/08/24 05:41:05;;;;;;;11.07;7.07;;;;;;;;;;2056748;28;20026;-95
2023/08/24 05:42:06;;;;;;;7.97;6.70;;;;;;;;;;2056415;28;20391;-95
2023/08/24 05:43:06;;;;;;;9.52;6.55;;;;;;;;;;2056667;28;20027;-95
2023/08/24 05:44:07;;;;;;;8.68;6.72;;;;;;;;;;2048637;29;20146;-95
2023/08/24 05:45:07;;;;;;;9.57;6.80;;;;;;;;;;2048682;29;20114;-95
2023/08/24 05:46:08;;;;;;;9.13;6.82;;;;;;;;;;2048522;29;20067;-95
2023/08/24 05:47:08;;;;;;;11.60;7.07;;;;;;;;;;2049085;29;20586;-95
2023/08/24 05:48:09;;;;;;;8.35;6.55;;;;;;;;;;2056693;28;20063;-94
2023/08/24 05:49:09;;;;;;;9.02;6.88;;;;;;;;;;2048811;29;20023;-94
2023/08/24 05:50:11;;;;;;;10.18;7.78;;;;;;;;;;2056670;28;20026;-94
2023/08/24 05:51:12;;;;;;;12.05;7.57;;;;;;;;;;2056609;28;20110;-96
2023/08/24 05:52:12;;;;;;;9.70;7.40;;;;;;;;;;2048581;28;20038;-95
2023/08/24 05:53:13;;;;;;;8.57;6.97;;;;;;;;;;2056620;28;20035;-95
2023/08/24 05:54:18;;;;;;;8.13;7.32;;;;;;;;;;2056506;28;20569;-96
2023/08/24 05:55:19;;;;;;;11.02;7.60;;;;;;;;;;2057225;28;20038;-96
2023/08/24 05:56:19;;;;;;;9.18;8.07;;;;;;;;;;2056512;28;20034;-95
2023/08/24 05:57:19;;;;;;;9.38;7.63;;;;;;;;;;2048919;29;20035;-94
2023/08/24 05:58:20;;;;;;;8.77;7.57;;;;;;;;;;2048972;28;20137;-96
2023/08/24 05:59:21;;;;;;;9.07;7.72;;;;;;;;;;2048811;29;20471;-96
2023/08/24 06:00:22;;;;;;;9.88;7.53;;;;;;;;;;2048562;29;20035;-95
2023/08/24 06:01:23;;;;;;;10.27;7.93;;;;;;;;;;2056566;28;20026;-96
2023/08/24 06:02:23;;;;;;;9.02;7.50;;;;;;;;;;2048642;28;20042;-96
2023/08/24 06:03:25;;;;;;;8.60;7.22;;;;;;;;;;2048041;28;20031;-94
2023/08/24 06:04:26;;;;;;;8.82;7.57;;;;;;;;;;2056833;28;20106;-95